createdAt,value
2023-04-17T00:01:05.738Z,7.95
2023-04-17T00:03:33.668Z,7.94
2023-04-17T00:06:01.058Z,7.93
2023-04-17T00:08:28.285Z,7.93
2023-04-17T00:11:06.461Z,7.94
2023-04-17T00:13:35.701Z,7.93
2023-04-17T00:16:03.164Z,7.94
2023-04-17T00:18:30.553Z,7.94
2023-04-17T00:20:57.748Z,7.93
2023-04-17T00:23:26.230Z,7.94
2023-04-17T00:25:53.486Z,7.94
2023-04-17T00:28:20.843Z,7.93
2023-04-17T00:30:48.073Z,7.94
2023-04-17T00:33:15.698Z,7.94
2023-04-17T00:35:42.883Z,7.95
2023-04-17T00:38:10.250Z,7.94
2023-04-17T00:40:37.623Z,7.93
2023-04-17T00:43:08.991Z,7.94
2023-04-17T00:45:36.235Z,7.96
2023-04-17T00:48:06.895Z,7.95
2023-04-17T00:50:34.509Z,7.94
2023-04-17T00:53:02.083Z,7.93
2023-04-17T00:55:31.214Z,7.91
2023-04-17T00:57:58.970Z,7.92
2023-04-17T01:00:26.444Z,7.92
2023-04-17T01:02:56.703Z,7.93
2023-04-17T01:05:25.774Z,7.92
2023-04-17T01:07:54.310Z,7.93
2023-04-17T01:10:21.727Z,7.92
2023-04-17T01:13:02.042Z,7.91
2023-04-17T01:15:29.528Z,7.91
2023-04-17T01:17:57.314Z,7.91
2023-04-17T01:20:25.442Z,7.90
2023-04-17T01:22:53.095Z,7.89
2023-04-17T01:25:20.446Z,7.90
2023-04-17T01:27:47.830Z,7.90
2023-04-17T01:30:15.099Z,7.88
2023-04-17T01:32:57.994Z,7.87
2023-04-17T01:35:25.307Z,7.86
2023-04-17T01:37:52.577Z,7.83
2023-04-17T01:40:20.016Z,7.81
2023-04-17T01:42:47.387Z,7.82
2023-04-17T01:45:15.262Z,7.79
2023-04-17T01:47:42.567Z,7.79
2023-04-17T01:50:10.365Z,7.79
2023-04-17T01:52:37.660Z,7.80
2023-04-17T01:55:05.198Z,7.78
2023-04-17T01:57:33.406Z,7.78
2023-04-17T02:00:00.753Z,7.76
2023-04-17T02:02:28.107Z,7.76
2023-04-17T02:04:55.370Z,7.79
2023-04-17T02:07:22.991Z,7.79
2023-04-17T02:09:50.176Z,7.79
2023-04-17T02:12:17.431Z,7.78
2023-04-17T02:14:44.625Z,7.78
2023-04-17T02:17:11.858Z,7.78
2023-04-17T02:19:39.040Z,7.78
2023-04-17T02:22:06.424Z,7.78
2023-04-17T02:24:33.759Z,7.79
2023-04-17T02:27:01.930Z,7.76
2023-04-17T02:29:31.680Z,7.73
2023-04-17T02:31:58.785Z,7.71
2023-04-17T02:34:26.550Z,7.70
2023-04-17T02:36:55.320Z,7.69
2023-04-17T02:39:24.569Z,7.68
2023-04-17T02:41:51.763Z,7.68
2023-04-17T02:44:18.943Z,7.67
2023-04-17T02:46:46.231Z,7.67
2023-04-17T02:49:14.262Z,7.61
2023-04-17T02:51:41.773Z,7.64
2023-04-17T02:54:09.215Z,7.63
2023-04-17T02:56:36.490Z,7.61
2023-04-17T02:59:03.719Z,7.62
2023-04-17T03:01:31.173Z,7.61
2023-04-17T03:03:58.840Z,7.61
2023-04-17T03:06:26.755Z,7.61
2023-04-17T03:08:54.012Z,7.60
2023-04-17T03:11:21.795Z,7.61
2023-04-17T03:13:49.505Z,7.61
2023-04-17T03:16:16.755Z,7.62
2023-04-17T03:18:46.632Z,7.61
2023-04-17T03:21:13.896Z,7.61
2023-04-17T03:23:41.510Z,7.60
2023-04-17T03:26:09.464Z,7.61
2023-04-17T03:28:37.595Z,7.60
2023-04-17T03:31:06.511Z,7.59
2023-04-17T03:33:35.054Z,7.57
2023-04-17T03:36:02.522Z,7.58
2023-04-17T03:38:29.974Z,7.57
2023-04-17T03:40:59.211Z,7.59
2023-04-17T03:43:27.069Z,7.60
2023-04-17T03:45:54.335Z,7.57
2023-04-17T03:48:22.569Z,7.57
2023-04-17T03:50:52.628Z,7.57
2023-04-17T03:53:20.664Z,7.56
2023-04-17T03:55:49.612Z,7.56
2023-04-17T03:58:25.670Z,7.55
2023-04-17T04:00:58.546Z,7.56
2023-04-17T04:03:30.573Z,7.55
2023-04-17T04:05:59.409Z,7.56
2023-04-17T04:08:26.715Z,7.54
2023-04-17T04:10:55.365Z,7.53
2023-04-17T04:13:32.031Z,7.54
2023-04-17T04:16:01.833Z,7.53
2023-04-17T04:18:30.903Z,7.51
2023-04-17T04:20:58.853Z,7.51
2023-04-17T04:23:30.943Z,7.51
2023-04-17T04:26:01.708Z,7.51
2023-04-17T04:28:38.192Z,7.49
2023-04-17T04:31:08.445Z,7.51
2023-04-17T04:33:40.409Z,7.50
2023-04-17T04:36:07.932Z,7.48
2023-04-17T04:38:36.093Z,7.49
2023-04-17T04:41:17.571Z,7.49
2023-04-17T04:43:44.808Z,7.51
2023-04-17T04:46:12.823Z,7.51
2023-04-17T04:48:44.747Z,7.51
2023-04-17T04:51:13.062Z,7.53
2023-04-17T04:53:41.051Z,7.55
2023-04-17T04:56:08.592Z,7.55
2023-04-17T04:58:36.488Z,7.59
2023-04-17T05:01:05.252Z,7.62
2023-04-17T05:03:41.329Z,7.63
2023-04-17T05:06:11.395Z,7.63
2023-04-17T05:08:45.088Z,7.65
2023-04-17T05:11:15.592Z,7.68
2023-04-17T05:13:43.658Z,7.69
2023-04-17T05:16:19.237Z,7.73
2023-04-17T05:18:48.093Z,7.74
2023-04-17T05:21:19.177Z,7.77
2023-04-17T05:23:49.799Z,7.79
2023-04-17T05:26:17.060Z,7.81
2023-04-17T05:28:45.169Z,7.84
2023-04-17T05:31:16.015Z,7.85
2023-04-17T05:33:43.838Z,7.88
2023-04-17T05:36:11.366Z,7.92
2023-04-17T05:38:40.837Z,7.93
2023-04-17T05:41:10.608Z,7.96
2023-04-17T05:43:38.525Z,8.01
2023-04-17T05:46:08.227Z,8.06
2023-04-17T05:48:35.560Z,8.08
2023-04-17T05:51:04.778Z,8.14
2023-04-17T05:53:33.377Z,8.18
2023-04-17T05:56:03.345Z,8.22
2023-04-17T05:58:36.123Z,8.24
2023-04-17T06:01:06.464Z,8.27
2023-04-17T06:03:34.581Z,8.31
2023-04-17T06:06:17.121Z,8.35
2023-04-17T06:08:44.381Z,8.38
2023-04-17T06:11:11.999Z,8.42
2023-04-17T06:13:39.343Z,8.46
2023-04-17T06:16:06.852Z,8.49
2023-04-17T06:18:34.103Z,8.55
2023-04-17T06:21:01.384Z,8.63
2023-04-17T06:23:29.107Z,8.69
2023-04-17T06:25:56.795Z,8.75
2023-04-17T06:28:24.080Z,8.78
2023-04-17T06:30:54.117Z,8.80
2023-04-17T06:33:23.119Z,8.86
2023-04-17T06:35:51.970Z,8.92
2023-04-17T06:38:36.457Z,9.00
2023-04-17T06:41:03.928Z,9.05
2023-04-17T06:43:31.110Z,9.10
2023-04-17T06:46:01.915Z,9.13
2023-04-17T06:48:33.539Z,9.17
2023-04-17T06:51:01.341Z,9.21
2023-04-17T06:53:28.670Z,9.25
2023-04-17T06:55:55.885Z,9.29
2023-04-17T06:58:23.160Z,9.35
2023-04-17T07:00:50.433Z,9.43
2023-04-17T07:03:17.797Z,9.51
2023-04-17T07:05:45.233Z,9.55
2023-04-17T07:08:12.476Z,9.63
2023-04-17T07:10:39.684Z,9.75
2023-04-17T07:13:07.041Z,9.85
2023-04-17T07:15:34.436Z,9.94
2023-04-17T07:18:01.760Z,10.01
2023-04-17T07:20:29.136Z,10.11
2023-04-17T07:22:56.750Z,10.19
2023-04-17T07:25:24.165Z,10.23
2023-04-17T07:27:51.651Z,10.26
2023-04-17T07:30:18.858Z,10.27
2023-04-17T07:32:46.429Z,10.37
2023-04-17T07:35:13.811Z,10.47
2023-04-17T07:37:41.224Z,10.53
2023-04-17T07:40:10.678Z,10.57
2023-04-17T07:42:38.116Z,10.62
2023-04-17T07:45:06.302Z,10.66
2023-04-17T07:47:33.866Z,10.70
2023-04-17T07:50:01.410Z,10.79
2023-04-17T07:52:29.707Z,10.81
2023-04-17T07:54:57.133Z,10.83
2023-04-17T07:57:26.469Z,10.80
2023-04-17T07:59:54.068Z,10.80
2023-04-17T08:02:22.976Z,10.84
2023-04-17T08:04:52.288Z,10.86
2023-04-17T08:07:20.279Z,10.87
2023-04-17T08:09:47.821Z,10.87
2023-04-17T08:12:15.158Z,10.93
2023-04-17T08:14:43.774Z,10.97
2023-04-17T08:17:11.222Z,11.04
2023-04-17T08:19:38.447Z,11.10
2023-04-17T08:22:07.002Z,11.16
2023-04-17T08:24:34.294Z,11.22
2023-04-17T08:27:01.597Z,11.28
2023-04-17T08:29:28.944Z,11.36
2023-04-17T08:32:12.731Z,11.45
2023-04-17T08:34:42.620Z,11.54
2023-04-17T08:37:09.806Z,11.60
2023-04-17T08:39:37.065Z,11.73
2023-04-17T08:42:10.012Z,11.79
2023-04-17T08:44:39.327Z,11.83
2023-04-17T08:47:09.087Z,11.92
2023-04-17T08:49:36.466Z,12.08
2023-04-17T08:52:05.158Z,12.21
2023-04-17T08:54:33.480Z,12.26
2023-04-17T08:57:04.941Z,12.29
2023-04-17T08:59:32.602Z,12.35
2023-04-17T09:02:07.913Z,12.42
2023-04-17T09:04:45.803Z,12.44
2023-04-17T09:07:15.427Z,12.47
2023-04-17T09:09:50.098Z,12.45
2023-04-17T09:12:18.798Z,12.46
2023-04-17T09:14:46.028Z,12.44
2023-04-17T09:17:17.513Z,12.42
2023-04-17T09:20:12.358Z,12.40
2023-04-17T09:22:40.920Z,12.32
2023-04-17T09:25:23.272Z,12.28
2023-04-17T09:27:50.542Z,12.22
2023-04-17T09:30:17.920Z,12.16
2023-04-17T09:32:45.185Z,12.04
2023-04-17T09:35:23.791Z,11.90
2023-04-17T09:37:53.631Z,11.87
2023-04-17T09:40:23.089Z,11.96
2023-04-17T09:42:54.082Z,12.09
2023-04-17T09:45:22.352Z,12.12
2023-04-17T09:47:51.083Z,12.14
2023-04-17T09:50:22.031Z,12.13
2023-04-17T09:52:54.039Z,12.14
2023-04-17T09:55:23.786Z,12.13
2023-04-17T09:57:54.722Z,12.13
2023-04-17T10:00:23.732Z,12.08
2023-04-17T10:02:54.837Z,12.06
2023-04-17T10:05:28.925Z,12.03
2023-04-17T10:07:57.119Z,12.05
2023-04-17T10:10:26.289Z,12.06
2023-04-17T10:12:56.495Z,12.07
2023-04-17T10:15:24.832Z,12.04
2023-04-17T10:17:53.085Z,12.00
2023-04-17T10:20:32.676Z,12.00
2023-04-17T10:23:01.289Z,12.04
2023-04-17T10:25:29.116Z,12.07
2023-04-17T10:28:00.856Z,12.12
2023-04-17T10:30:52.100Z,12.19
2023-04-17T10:33:24.888Z,12.28
2023-04-17T10:35:53.089Z,12.35
2023-04-17T10:38:32.739Z,12.41
2023-04-17T10:41:03.223Z,12.45
2023-04-17T10:43:30.595Z,12.56
2023-04-17T10:46:03.841Z,12.62
2023-04-17T10:48:50.545Z,12.69
2023-04-17T10:51:24.017Z,12.70
2023-04-17T10:53:55.728Z,12.71
2023-04-17T10:56:37.959Z,12.72
2023-04-17T10:59:11.059Z,12.68
2023-04-17T11:01:47.899Z,12.74
2023-04-17T11:04:23.776Z,12.86
2023-04-17T11:06:55.601Z,12.95
2023-04-17T11:09:28.688Z,13.04
2023-04-17T11:11:59.958Z,13.00
2023-04-17T11:14:27.834Z,13.00
2023-04-17T11:16:56.099Z,13.01
2023-04-17T11:19:25.034Z,12.97
2023-04-17T11:21:54.698Z,12.92
2023-04-17T11:24:32.254Z,12.87
2023-04-17T11:27:01.397Z,12.81
2023-04-17T11:29:29.270Z,12.74
2023-04-17T11:31:57.615Z,12.80
2023-04-17T11:34:28.187Z,12.88
2023-04-17T11:36:56.814Z,12.92
2023-04-17T11:39:26.519Z,12.98
2023-04-17T11:41:54.025Z,13.09
2023-04-17T11:44:21.640Z,13.18
2023-04-17T11:46:59.281Z,13.20
2023-04-17T11:49:31.506Z,13.20
2023-04-17T11:52:04.408Z,13.20
2023-04-17T11:54:37.040Z,13.28
2023-04-17T11:57:12.607Z,13.37
2023-04-17T11:59:42.205Z,13.54
2023-04-17T12:02:10.055Z,13.65
2023-04-17T12:04:39.716Z,13.72
2023-04-17T12:07:08.731Z,13.77
2023-04-17T12:09:36.465Z,13.84
2023-04-17T12:12:05.470Z,13.92
2023-04-17T12:14:33.079Z,14.04
2023-04-17T12:17:00.423Z,14.11
2023-04-17T12:19:29.570Z,14.14
2023-04-17T12:21:57.491Z,14.09
2023-04-17T12:24:25.310Z,14.06
2023-04-17T12:26:53.087Z,14.04
2023-04-17T12:29:29.588Z,13.96
2023-04-17T12:32:07.966Z,13.97
2023-04-17T12:34:35.363Z,14.03
2023-04-17T12:37:02.598Z,14.04
2023-04-17T12:39:29.768Z,13.98
2023-04-17T12:41:57.002Z,13.93
2023-04-17T12:44:24.203Z,13.90
2023-04-17T12:46:51.414Z,13.87
2023-04-17T12:49:20.546Z,13.86
2023-04-17T12:51:47.795Z,13.87
2023-04-17T12:54:15.174Z,13.85
2023-04-17T12:56:42.459Z,13.92
2023-04-17T12:59:10.379Z,13.90
2023-04-17T13:01:37.787Z,13.90
2023-04-17T13:04:05.660Z,13.89
2023-04-17T13:06:33.084Z,13.93
2023-04-17T13:09:00.365Z,13.97
2023-04-17T13:11:27.583Z,14.06
2023-04-17T13:13:54.864Z,14.12
2023-04-17T13:16:22.179Z,14.19
2023-04-17T13:18:49.424Z,14.28
2023-04-17T13:21:16.785Z,14.38
2023-04-17T13:23:43.940Z,14.44
2023-04-17T13:26:11.278Z,14.49
2023-04-17T13:28:39.819Z,14.48
2023-04-17T13:31:07.299Z,14.45
2023-04-17T13:33:34.704Z,14.40
2023-04-17T13:36:02.022Z,14.36
2023-04-17T13:38:30.483Z,14.38
2023-04-17T13:40:57.714Z,14.43
2023-04-17T13:43:24.935Z,14.45
2023-04-17T13:45:54.954Z,14.46
2023-04-17T13:48:22.822Z,14.43
2023-04-17T13:50:50.119Z,14.39
2023-04-17T13:53:17.336Z,14.38
2023-04-17T13:55:44.655Z,14.39
2023-04-17T13:58:11.953Z,14.40
2023-04-17T14:00:39.486Z,14.35
2023-04-17T14:03:06.947Z,14.30
2023-04-17T14:05:35.672Z,14.24
2023-04-17T14:08:02.959Z,14.20
2023-04-17T14:10:30.129Z,14.12
2023-04-17T14:12:57.372Z,14.07
2023-04-17T14:15:24.704Z,14.04
2023-04-17T14:17:52.290Z,14.01
2023-04-17T14:20:20.156Z,13.94
2023-04-17T14:22:47.364Z,13.93
2023-04-17T14:25:15.330Z,13.93
2023-04-17T14:27:42.758Z,13.87
2023-04-17T14:30:10.288Z,13.76
2023-04-17T14:32:38.606Z,13.67
2023-04-17T14:35:06.724Z,13.61
2023-04-17T14:37:34.195Z,13.54
2023-04-17T14:40:01.620Z,13.47
2023-04-17T14:42:28.923Z,13.42
2023-04-17T14:44:56.138Z,13.44
2023-04-17T14:47:23.450Z,13.51
2023-04-17T14:49:51.051Z,13.52
2023-04-17T14:52:18.301Z,13.50
2023-04-17T14:54:45.633Z,13.42
2023-04-17T14:57:12.883Z,13.37
2023-04-17T14:59:40.524Z,13.32
2023-04-17T15:02:07.944Z,13.27
2023-04-17T15:04:35.350Z,13.27
2023-04-17T15:07:03.186Z,13.26
2023-04-17T15:09:30.781Z,13.23
2023-04-17T15:11:57.988Z,13.22
2023-04-17T15:14:25.853Z,13.19
2023-04-17T15:16:54.400Z,13.18
2023-04-17T15:19:21.789Z,13.15
2023-04-17T15:21:49.033Z,13.12
2023-04-17T15:24:16.464Z,13.15
2023-04-17T15:26:45.171Z,13.14
2023-04-17T15:29:12.831Z,13.09
2023-04-17T15:31:40.535Z,13.07
2023-04-17T15:34:07.890Z,13.05
2023-04-17T15:36:35.172Z,13.02
2023-04-17T15:39:02.429Z,13.00
2023-04-17T15:41:29.874Z,12.98
2023-04-17T15:43:57.110Z,12.99
2023-04-17T15:46:24.513Z,12.96
2023-04-17T15:49:05.017Z,12.96
2023-04-17T15:51:40.942Z,12.98
2023-04-17T15:54:11.883Z,13.01
2023-04-17T15:56:39.678Z,12.99
2023-04-17T15:59:07.095Z,12.97
2023-04-17T16:01:34.412Z,12.96
2023-04-17T16:04:02.070Z,12.92
2023-04-17T16:06:29.550Z,12.90
2023-04-17T16:08:57.248Z,12.84
2023-04-17T16:11:25.624Z,12.77
2023-04-17T16:13:52.852Z,12.71
2023-04-17T16:16:20.185Z,12.72
2023-04-17T16:18:47.760Z,12.66
2023-04-17T16:21:15.041Z,12.65
2023-04-17T16:23:42.377Z,12.63
2023-04-17T16:26:10.765Z,12.64
2023-04-17T16:28:38.028Z,12.63
2023-04-17T16:31:05.485Z,12.62
2023-04-17T16:33:32.833Z,12.64
2023-04-17T16:36:00.050Z,12.64
2023-04-17T16:38:27.609Z,12.62
2023-04-17T16:40:57.062Z,12.62
2023-04-17T16:43:24.745Z,12.59
2023-04-17T16:45:51.906Z,12.54
2023-04-17T16:48:19.198Z,12.46
2023-04-17T16:50:46.562Z,12.35
2023-04-17T16:53:13.809Z,12.20
2023-04-17T16:55:41.010Z,12.07
2023-04-17T16:58:08.303Z,11.97
2023-04-17T17:00:36.172Z,11.88
2023-04-17T17:03:04.194Z,11.83
2023-04-17T17:05:31.412Z,11.75
2023-04-17T17:07:58.904Z,11.71
2023-04-17T17:10:26.083Z,11.70
2023-04-17T17:12:53.390Z,11.65
2023-04-17T17:15:21.419Z,11.61
2023-04-17T17:17:48.882Z,11.59
2023-04-17T17:20:16.301Z,11.58
2023-04-17T17:22:43.530Z,11.56
2023-04-17T17:25:10.852Z,11.57
2023-04-17T17:27:38.126Z,11.58
2023-04-17T17:30:05.976Z,11.57
2023-04-17T17:32:33.321Z,11.60
2023-04-17T17:35:00.700Z,11.59
2023-04-17T17:37:28.293Z,11.59
2023-04-17T17:39:55.578Z,11.57
2023-04-17T17:42:22.889Z,11.57
2023-04-17T17:44:50.347Z,11.57
2023-04-17T17:47:17.639Z,11.57
2023-04-17T17:49:44.837Z,11.57
2023-04-17T17:52:12.104Z,11.57
2023-04-17T17:54:39.716Z,11.55
2023-04-17T17:57:07.024Z,11.54
2023-04-17T17:59:34.411Z,11.51
2023-04-17T18:02:02.505Z,11.50
2023-04-17T18:04:30.206Z,11.48
2023-04-17T18:06:57.754Z,11.45
2023-04-17T18:09:25.157Z,11.42
2023-04-17T18:11:52.736Z,11.39
2023-04-17T18:14:20.072Z,11.35
2023-04-17T18:16:48.488Z,11.32
2023-04-17T18:19:15.867Z,11.28
2023-04-17T18:21:43.783Z,11.24
2023-04-17T18:24:12.008Z,11.19
2023-04-17T18:26:39.413Z,11.16
2023-04-17T18:29:07.072Z,11.11
2023-04-17T18:31:34.448Z,11.08
2023-04-17T18:34:02.586Z,11.06
2023-04-17T18:36:30.852Z,11.02
2023-04-17T18:38:58.080Z,10.98
2023-04-17T18:41:26.633Z,10.94
2023-04-17T18:43:53.942Z,10.91
2023-04-17T18:46:22.024Z,10.85
2023-04-17T18:48:49.406Z,10.82
2023-04-17T18:51:17.522Z,10.74
2023-04-17T18:53:44.872Z,10.71
2023-04-17T18:56:13.701Z,10.64
2023-04-17T18:58:41.141Z,10.60
2023-04-17T19:01:11.946Z,10.54
2023-04-17T19:03:39.585Z,10.48
2023-04-17T19:06:06.932Z,10.43
2023-04-17T19:08:34.943Z,10.38
2023-04-17T19:11:03.258Z,10.31
2023-04-17T19:13:30.531Z,10.27
2023-04-17T19:15:57.872Z,10.23
2023-04-17T19:18:25.120Z,10.18
2023-04-17T19:20:52.339Z,10.13
2023-04-17T19:23:19.628Z,10.09
2023-04-17T19:25:53.614Z,10.03
2023-04-17T19:28:21.882Z,10.00
2023-04-17T19:30:49.213Z,9.96
2023-04-17T19:33:16.600Z,9.92
2023-04-17T19:35:43.806Z,9.88
2023-04-17T19:38:11.404Z,9.84
2023-04-17T19:40:38.599Z,9.81
2023-04-17T19:43:05.991Z,9.73
2023-04-17T19:45:34.759Z,9.70
2023-04-17T19:48:02.165Z,9.66
2023-04-17T19:50:30.192Z,9.63
2023-04-17T19:52:58.211Z,9.58
2023-04-17T19:55:25.470Z,9.55
2023-04-17T19:57:52.686Z,9.50
2023-04-17T20:00:20.054Z,9.47
2023-04-17T20:02:48.038Z,9.43
2023-04-17T20:05:16.951Z,9.38
2023-04-17T20:07:44.354Z,9.33
2023-04-17T20:10:11.560Z,9.29
2023-04-17T20:12:38.764Z,9.26
2023-04-17T20:15:06.986Z,9.23
2023-04-17T20:17:34.321Z,9.18
2023-04-17T20:20:01.605Z,9.14
2023-04-17T20:22:28.836Z,9.12
2023-04-17T20:24:56.376Z,9.09
2023-04-17T20:27:23.650Z,9.05
2023-04-17T20:29:50.908Z,9.04
2023-04-17T20:32:20.265Z,9.02
2023-04-17T20:34:48.885Z,8.99
2023-04-17T20:37:16.466Z,8.94
2023-04-17T20:39:43.769Z,8.93
2023-04-17T20:42:10.980Z,8.90
2023-04-17T20:44:38.345Z,8.85
2023-04-17T20:47:05.706Z,8.81
2023-04-17T20:49:33.966Z,8.76
2023-04-17T20:52:03.042Z,8.71
2023-04-17T20:54:30.486Z,8.66
2023-04-17T20:56:57.989Z,8.62
2023-04-17T20:59:25.409Z,8.59
2023-04-17T21:01:52.816Z,8.55
2023-04-17T21:04:21.720Z,8.50
2023-04-17T21:06:49.008Z,8.46
2023-04-17T21:09:16.667Z,8.42
2023-04-17T21:11:44.167Z,8.37
2023-04-17T21:14:14.112Z,8.36
2023-04-17T21:16:44.507Z,8.31
2023-04-17T21:19:12.588Z,8.30
2023-04-17T21:21:40.017Z,8.25
2023-04-17T21:24:09.043Z,8.22
2023-04-17T21:26:36.525Z,8.19
2023-04-17T21:29:04.368Z,8.19
2023-04-17T21:31:31.890Z,8.18
2023-04-17T21:33:59.247Z,8.17
2023-04-17T21:36:28.324Z,8.14
2023-04-17T21:38:55.831Z,8.12
2023-04-17T21:41:23.212Z,8.10
2023-04-17T21:43:50.628Z,8.06
2023-04-17T21:46:18.454Z,8.02
2023-04-17T21:48:46.186Z,7.99
2023-04-17T21:51:14.220Z,7.96
2023-04-17T21:53:43.996Z,7.93
2023-04-17T21:56:12.348Z,7.90
2023-04-17T21:58:39.929Z,7.88
2023-04-17T22:01:07.475Z,7.85
2023-04-17T22:03:36.431Z,7.83
2023-04-17T22:06:04.122Z,7.82
2023-04-17T22:08:31.321Z,7.80
2023-04-17T22:10:58.570Z,7.78
2023-04-17T22:13:25.983Z,7.78
2023-04-17T22:15:53.244Z,7.76
2023-04-17T22:18:20.560Z,7.74
2023-04-17T22:20:47.784Z,7.73
2023-04-17T22:23:33.877Z,7.72
2023-04-17T22:26:38.552Z,7.72
2023-04-17T22:29:24.430Z,7.71
2023-04-17T22:32:10.540Z,7.68
2023-04-17T22:35:34.105Z,7.68
2023-04-17T22:38:19.972Z,7.66
2023-04-17T22:42:02.074Z,7.64
2023-04-17T22:44:47.761Z,7.59
2023-04-17T22:47:15.008Z,7.56
2023-04-17T22:49:42.514Z,7.58
2023-04-17T22:52:09.852Z,7.57
2023-04-17T22:54:37.502Z,7.59
2023-04-17T22:57:04.855Z,7.59
2023-04-17T22:59:32.126Z,7.60
2023-04-17T23:01:59.511Z,7.59
2023-04-17T23:04:26.868Z,7.57
2023-04-17T23:06:54.110Z,7.55
2023-04-17T23:09:22.039Z,7.54
2023-04-17T23:11:49.263Z,7.52
2023-04-17T23:14:16.496Z,7.50
2023-04-17T23:16:43.810Z,7.49
2023-04-17T23:19:11.022Z,7.48
2023-04-17T23:21:38.351Z,7.47
2023-04-17T23:24:06.318Z,7.45
2023-04-17T23:26:33.561Z,7.41
2023-04-17T23:29:00.848Z,7.39
2023-04-17T23:31:28.097Z,7.36
2023-04-17T23:33:55.415Z,7.34
2023-04-17T23:36:22.685Z,7.31
2023-04-17T23:38:49.969Z,7.28
2023-04-17T23:41:17.133Z,7.27
2023-04-17T23:43:44.378Z,7.21
2023-04-17T23:46:11.580Z,7.18
2023-04-17T23:48:38.792Z,7.15
2023-04-17T23:51:06.102Z,7.08
2023-04-17T23:53:33.351Z,7.05
2023-04-17T23:56:00.817Z,7.01
2023-04-17T23:58:28.036Z,6.96
